KVYS/VYS METAR and TAF weather

Enter ICAO airport designator
Station Type Date Time Source
KVYS METAR 2021/01/17 19:15 UTC NOAA

KVYS 171915Z AUTO 28008KT 10SM OVC008 M01/M03 A2971 RMK AO2 T10131030


Station Type Date Time Source
KVYS Decoded METAR 2021/01/17 19:15 UTC NOAA

Peru, Illinois Valley Regional-Walter A Duncan Field Airport, IL, United States (KVYS) 41-21-07N 089-09-11W
Jan 17, 2021 - 02:15 PM EST / 2021.01.17 1915 UTC
Wind: from the W (280 degrees) at 9 MPH (8 KT):0
Visibility: 10 mile(s):0
Sky conditions: overcast
Temperature: 29.7 F (-1.3 C)
Windchill: 21 F (-6 C):1
Dew Point: 26.6 F (-3.0 C)
Relative Humidity: 88%
Pressure (altimeter): 29.71 in. Hg (1006 hPa)
ob: KVYS 171915Z AUTO 28008KT 10SM OVC008 M01/M03 A2971 RMK AO2 T10131030
cycle: 19

Station Type Date Time Source
KVYS TAF UTC NOAA

Error!

Example: see airport list